sensor_id;sensor_type;location;lat;lon;timestamp;temperature;humidity
21928;DHT22;11128;51.096;17.190;2023-09-19T00:03:45;22.20;99.90
21928;DHT22;11128;51.096;17.190;2023-09-19T00:08:47;22.20;99.90
21928;DHT22;11128;51.096;17.190;2023-09-19T00:13:49;22.10;99.90
21928;DHT22;11128;51.096;17.190;2023-09-19T00:18:51;22.10;99.90
21928;DHT22;11128;51.096;17.190;2023-09-19T00:23:52;22.10;1.00
21928;DHT22;11128;51.096;17.190;2023-09-19T00:28:53;22.00;1.00
21928;DHT22;11128;51.096;17.190;2023-09-19T00:33:54;21.90;1.00
21928;DHT22;11128;51.096;17.190;2023-09-19T00:38:57;21.80;1.00
21928;DHT22;11128;51.096;17.190;2023-09-19T00:43:59;21.80;1.00
21928;DHT22;11128;51.096;17.190;2023-09-19T00:49:01;21.70;1.00
21928;DHT22;11128;51.096;17.190;2023-09-19T00:54:03;21.70;1.00
21928;DHT22;11128;51.096;17.190;2023-09-19T00:59:05;21.60;1.00
21928;DHT22;11128;51.096;17.190;2023-09-19T01:04:07;21.70;1.00
21928;DHT22;11128;51.096;17.190;2023-09-19T01:09:09;21.70;1.00
21928;DHT22;11128;51.096;17.190;2023-09-19T01:30:20;21.60;1.00
21928;DHT22;11128;51.096;17.190;2023-09-19T01:35:25;21.60;1.00
21928;DHT22;11128;51.096;17.190;2023-09-19T01:40:27;21.50;1.00
21928;DHT22;11128;51.096;17.190;2023-09-19T01:45:52;21.50;1.00
21928;DHT22;11128;51.096;17.190;2023-09-19T01:56:05;21.50;1.00
21928;DHT22;11128;51.096;17.190;2023-09-19T02:01:11;21.50;1.00
21928;DHT22;11128;51.096;17.190;2023-09-19T02:06:16;21.60;1.00
21928;DHT22;11128;51.096;17.190;2023-09-19T02:11:18;21.50;1.00
21928;DHT22;11128;51.096;17.190;2023-09-19T02:16:20;21.50;1.00
21928;DHT22;11128;51.096;17.190;2023-09-19T02:21:21;21.60;1.00
21928;DHT22;11128;51.096;17.190;2023-09-19T02:26:22;21.60;1.00
21928;DHT22;11128;51.096;17.190;2023-09-19T02:31:24;21.60;1.00
21928;DHT22;11128;51.096;17.190;2023-09-19T02:36:26;21.60;1.00
21928;DHT22;11128;51.096;17.190;2023-09-19T02:41:27;21.50;1.00
21928;DHT22;11128;51.096;17.190;2023-09-19T02:46:30;21.50;1.00
21928;DHT22;11128;51.096;17.190;2023-09-19T02:51:32;21.60;1.00
21928;DHT22;11128;51.096;17.190;2023-09-19T02:56:33;21.50;1.00
21928;DHT22;11128;51.096;17.190;2023-09-19T03:01:37;21.50;1.00
21928;DHT22;11128;51.096;17.190;2023-09-19T03:06:39;21.50;1.00
21928;DHT22;11128;51.096;17.190;2023-09-19T03:11:41;21.40;1.00
21928;DHT22;11128;51.096;17.190;2023-09-19T03:16:43;21.30;1.00
21928;DHT22;11128;51.096;17.190;2023-09-19T03:21:45;21.20;1.00
21928;DHT22;11128;51.096;17.190;2023-09-19T03:26:47;21.10;1.00
21928;DHT22;11128;51.096;17.190;2023-09-19T03:31:48;21.00;99.90
21928;DHT22;11128;51.096;17.190;2023-09-19T03:36:49;20.80;99.90
21928;DHT22;11128;51.096;17.190;2023-09-19T03:41:51;20.80;99.90
21928;DHT22;11128;51.096;17.190;2023-09-19T03:46:52;20.90;7.00
21928;DHT22;11128;51.096;17.190;2023-09-19T03:51:53;21.00;8.10
21928;DHT22;11128;51.096;17.190;2023-09-19T03:56:55;21.00;1.00
21928;DHT22;11128;51.096;17.190;2023-09-19T04:01:56;21.10;1.00
21928;DHT22;11128;51.096;17.190;2023-09-19T04:06:59;21.10;1.00
21928;DHT22;11128;51.096;17.190;2023-09-19T04:12:00;21.10;1.00
21928;DHT22;11128;51.096;17.190;2023-09-19T04:17:01;21.00;1.00
21928;DHT22;11128;51.096;17.190;2023-09-19T04:22:03;21.00;1.00
21928;DHT22;11128;51.096;17.190;2023-09-19T04:27:05;21.00;1.00
21928;DHT22;11128;51.096;17.190;2023-09-19T04:32:08;20.90;1.00
21928;DHT22;11128;51.096;17.190;2023-09-19T04:37:10;20.90;26.40
21928;DHT22;11128;51.096;17.190;2023-09-19T04:42:13;20.90;28.10
21928;DHT22;11128;51.096;17.190;2023-09-19T04:47:15;20.80;98.00
21928;DHT22;11128;51.096;17.190;2023-09-19T04:52:17;20.70;99.90
21928;DHT22;11128;51.096;17.190;2023-09-19T04:57:18;20.70;99.90
21928;DHT22;11128;51.096;17.190;2023-09-19T05:02:19;20.60;99.90
21928;DHT22;11128;51.096;17.190;2023-09-19T05:07:21;20.60;99.90
21928;DHT22;11128;51.096;17.190;2023-09-19T05:12:22;20.60;99.90
21928;DHT22;11128;51.096;17.190;2023-09-19T05:17:24;20.70;1.00
21928;DHT22;11128;51.096;17.190;2023-09-19T05:22:29;20.70;2.90
21928;DHT22;11128;51.096;17.190;2023-09-19T05:27:30;20.80;13.70
21928;DHT22;11128;51.096;17.190;2023-09-19T05:32:32;20.70;1.00
21928;DHT22;11128;51.096;17.190;2023-09-19T05:37:33;20.80;1.00
21928;DHT22;11128;51.096;17.190;2023-09-19T05:42:34;20.80;1.00
21928;DHT22;11128;51.096;17.190;2023-09-19T05:47:35;20.80;1.00
21928;DHT22;11128;51.096;17.190;2023-09-19T05:52:38;20.80;1.00
21928;DHT22;11128;51.096;17.190;2023-09-19T05:57:39;20.80;1.00
21928;DHT22;11128;51.096;17.190;2023-09-19T06:02:40;20.70;1.00
21928;DHT22;11128;51.096;17.190;2023-09-19T06:07:42;20.60;99.90
21928;DHT22;11128;51.096;17.190;2023-09-19T06:12:43;20.70;1.00
21928;DHT22;11128;51.096;17.190;2023-09-19T06:17:49;20.70;35.60
21928;DHT22;11128;51.096;17.190;2023-09-19T06:22:51;20.60;91.90
21928;DHT22;11128;51.096;17.190;2023-09-19T06:27:52;20.70;99.90
21928;DHT22;11128;51.096;17.190;2023-09-19T06:32:58;20.60;99.90
21928;DHT22;11128;51.096;17.190;2023-09-19T06:38:02;20.70;99.90
21928;DHT22;11128;51.096;17.190;2023-09-19T06:43:05;20.70;99.90
21928;DHT22;11128;51.096;17.190;2023-09-19T06:48:06;20.70;99.90
21928;DHT22;11128;51.096;17.190;2023-09-19T06:53:08;20.70;99.90
21928;DHT22;11128;51.096;17.190;2023-09-19T06:58:10;20.70;99.90
21928;DHT22;11128;51.096;17.190;2023-09-19T07:03:13;20.70;99.90
21928;DHT22;11128;51.096;17.190;2023-09-19T07:08:15;20.80;39.70
21928;DHT22;11128;51.096;17.190;2023-09-19T07:13:16;20.80;1.00
21928;DHT22;11128;51.096;17.190;2023-09-19T07:18:18;20.90;1.00
21928;DHT22;11128;51.096;17.190;2023-09-19T07:23:20;21.10;1.00
21928;DHT22;11128;51.096;17.190;2023-09-19T07:28:23;21.20;1.00
21928;DHT22;11128;51.096;17.190;2023-09-19T07:33:24;21.20;1.00
21928;DHT22;11128;51.096;17.190;2023-09-19T07:38:28;21.30;1.00
21928;DHT22;11128;51.096;17.190;2023-09-19T07:43:29;21.30;1.00
21928;DHT22;11128;51.096;17.190;2023-09-19T07:48:31;21.30;1.00
21928;DHT22;11128;51.096;17.190;2023-09-19T07:53:33;21.30;1.00
21928;DHT22;11128;51.096;17.190;2023-09-19T07:58:41;21.30;1.00
21928;DHT22;11128;51.096;17.190;2023-09-19T08:03:45;21.30;1.00
21928;DHT22;11128;51.096;17.190;2023-09-19T08:08:46;21.30;1.00
21928;DHT22;11128;51.096;17.190;2023-09-19T08:13:48;21.40;1.00
21928;DHT22;11128;51.096;17.190;2023-09-19T08:18:49;21.40;1.00
21928;DHT22;11128;51.096;17.190;2023-09-19T08:23:53;21.30;1.00
21928;DHT22;11128;51.096;17.190;2023-09-19T08:28:55;21.30;1.00
21928;DHT22;11128;51.096;17.190;2023-09-19T08:33:57;21.20;1.00
21928;DHT22;11128;51.096;17.190;2023-09-19T08:38:58;21.20;1.00
21928;DHT22;11128;51.096;17.190;2023-09-19T08:44:00;21.20;1.00
21928;DHT22;11128;51.096;17.190;2023-09-19T08:49:05;21.10;1.00
21928;DHT22;11128;51.096;17.190;2023-09-19T08:54:17;21.20;1.00
21928;DHT22;11128;51.096;17.190;2023-09-19T08:59:23;21.20;1.00
21928;DHT22;11128;51.096;17.190;2023-09-19T09:04:26;21.20;1.00
21928;DHT22;11128;51.096;17.190;2023-09-19T09:09:28;21.20;1.00
21928;DHT22;11128;51.096;17.190;2023-09-19T09:14:29;21.20;1.00
21928;DHT22;11128;51.096;17.190;2023-09-19T09:19:31;21.20;1.00
21928;DHT22;11128;51.096;17.190;2023-09-19T09:24:32;21.20;1.00
21928;DHT22;11128;51.096;17.190;2023-09-19T09:29:47;21.20;1.00
21928;DHT22;11128;51.096;17.190;2023-09-19T09:34:58;21.40;1.00
21928;DHT22;11128;51.096;17.190;2023-09-19T09:40:01;21.50;99.90
21928;DHT22;11128;51.096;17.190;2023-09-19T09:45:17;21.60;99.90
21928;DHT22;11128;51.096;17.190;2023-09-19T09:50:35;21.70;99.90
21928;DHT22;11128;51.096;17.190;2023-09-19T10:01:05;22.10;99.90
21928;DHT22;11128;51.096;17.190;2023-09-19T10:06:12;22.20;99.90
21928;DHT22;11128;51.096;17.190;2023-09-19T10:11:28;22.30;99.90
21928;DHT22;11128;51.096;17.190;2023-09-19T10:16:32;22.20;99.90
21928;DHT22;11128;51.096;17.190;2023-09-19T10:21:36;22.20;99.90
21928;DHT22;11128;51.096;17.190;2023-09-19T10:26:40;22.20;99.90
21928;DHT22;11128;51.096;17.190;2023-09-19T10:31:47;22.10;99.90
21928;DHT22;11128;51.096;17.190;2023-09-19T10:36:51;22.10;99.90
21928;DHT22;11128;51.096;17.190;2023-09-19T10:41:55;22.10;99.90
21928;DHT22;11128;51.096;17.190;2023-09-19T10:47:00;22.10;99.90
21928;DHT22;11128;51.096;17.190;2023-09-19T10:52:02;21.90;99.90
21928;DHT22;11128;51.096;17.190;2023-09-19T10:57:09;21.80;99.90
21928;DHT22;11128;51.096;17.190;2023-09-19T11:02:20;21.80;99.90
21928;DHT22;11128;51.096;17.190;2023-09-19T11:07:21;22.00;99.90
21928;DHT22;11128;51.096;17.190;2023-09-19T11:43:48;23.60;1.00
21928;DHT22;11128;51.096;17.190;2023-09-19T11:48:52;23.70;1.00
21928;DHT22;11128;51.096;17.190;2023-09-19T11:53:57;24.00;1.00
21928;DHT22;11128;51.096;17.190;2023-09-19T11:59:02;24.00;1.00
21928;DHT22;11128;51.096;17.190;2023-09-19T12:04:04;23.90;1.00
21928;DHT22;11128;51.096;17.190;2023-09-19T12:09:06;23.90;1.00
21928;DHT22;11128;51.096;17.190;2023-09-19T12:14:22;23.90;1.00
21928;DHT22;11128;51.096;17.190;2023-09-19T12:19:23;24.00;1.00
21928;DHT22;11128;51.096;17.190;2023-09-19T12:24:27;24.10;1.00
21928;DHT22;11128;51.096;17.190;2023-09-19T12:29:31;24.10;1.00
21928;DHT22;11128;51.096;17.190;2023-09-19T12:34:35;24.40;1.00
21928;DHT22;11128;51.096;17.190;2023-09-19T12:39:38;24.60;1.00
21928;DHT22;11128;51.096;17.190;2023-09-19T12:44:42;24.60;1.00
21928;DHT22;11128;51.096;17.190;2023-09-19T12:55:24;24.60;1.00
21928;DHT22;11128;51.096;17.190;2023-09-19T13:00:40;24.80;1.00
21928;DHT22;11128;51.096;17.190;2023-09-19T13:05:57;25.20;1.00
21928;DHT22;11128;51.096;17.190;2023-09-19T13:11:12;25.40;1.00
21928;DHT22;11128;51.096;17.190;2023-09-19T13:16:15;25.60;1.00
21928;DHT22;11128;51.096;17.190;2023-09-19T13:21:33;25.70;1.00
21928;DHT22;11128;51.096;17.190;2023-09-19T13:26:50;25.80;1.00
21928;DHT22;11128;51.096;17.190;2023-09-19T13:31:55;26.00;1.00
21928;DHT22;11128;51.096;17.190;2023-09-19T13:36:57;26.00;1.00
21928;DHT22;11128;51.096;17.190;2023-09-19T13:41:59;25.90;1.00
21928;DHT22;11128;51.096;17.190;2023-09-19T13:47:01;25.90;1.00
21928;DHT22;11128;51.096;17.190;2023-09-19T13:52:03;25.90;1.00
21928;DHT22;11128;51.096;17.190;2023-09-19T13:57:06;26.10;1.00
21928;DHT22;11128;51.096;17.190;2023-09-19T14:02:08;26.00;1.00
21928;DHT22;11128;51.096;17.190;2023-09-19T14:07:10;26.00;1.00
21928;DHT22;11128;51.096;17.190;2023-09-19T14:12:12;26.00;1.00
21928;DHT22;11128;51.096;17.190;2023-09-19T14:17:14;25.90;1.00
21928;DHT22;11128;51.096;17.190;2023-09-19T14:22:16;25.80;1.00
21928;DHT22;11128;51.096;17.190;2023-09-19T14:27:17;25.80;1.00
21928;DHT22;11128;51.096;17.190;2023-09-19T14:32:18;25.80;1.00
21928;DHT22;11128;51.096;17.190;2023-09-19T14:37:20;25.70;1.00
21928;DHT22;11128;51.096;17.190;2023-09-19T14:42:22;25.60;1.00
21928;DHT22;11128;51.096;17.190;2023-09-19T14:47:23;25.30;1.00
21928;DHT22;11128;51.096;17.190;2023-09-19T14:52:25;25.00;1.00
21928;DHT22;11128;51.096;17.190;2023-09-19T14:57:29;24.80;1.00
21928;DHT22;11128;51.096;17.190;2023-09-19T15:02:31;24.60;1.00
21928;DHT22;11128;51.096;17.190;2023-09-19T15:07:32;24.60;1.00
21928;DHT22;11128;51.096;17.190;2023-09-19T15:12:33;24.60;1.00
21928;DHT22;11128;51.096;17.190;2023-09-19T15:17:36;24.60;1.00
21928;DHT22;11128;51.096;17.190;2023-09-19T15:22:38;24.50;1.00
21928;DHT22;11128;51.096;17.190;2023-09-19T15:27:40;24.30;1.00
21928;DHT22;11128;51.096;17.190;2023-09-19T15:32:42;24.10;1.00
21928;DHT22;11128;51.096;17.190;2023-09-19T15:37:43;23.90;1.00
21928;DHT22;11128;51.096;17.190;2023-09-19T15:42:45;23.70;1.00
21928;DHT22;11128;51.096;17.190;2023-09-19T15:47:47;23.60;1.00
21928;DHT22;11128;51.096;17.190;2023-09-19T15:52:53;23.50;1.00
21928;DHT22;11128;51.096;17.190;2023-09-19T15:57:59;23.30;1.00
21928;DHT22;11128;51.096;17.190;2023-09-19T16:03:00;22.30;1.00
21928;DHT22;11128;51.096;17.190;2023-09-19T16:08:06;23.10;1.00
21928;DHT22;11128;51.096;17.190;2023-09-19T16:13:08;23.00;1.00
21928;DHT22;11128;51.096;17.190;2023-09-19T16:18:10;22.90;1.00
21928;DHT22;11128;51.096;17.190;2023-09-19T16:23:11;22.80;1.00
21928;DHT22;11128;51.096;17.190;2023-09-19T16:28:13;22.70;1.00
21928;DHT22;11128;51.096;17.190;2023-09-19T16:33:14;22.50;1.00
21928;DHT22;11128;51.096;17.190;2023-09-19T16:38:15;22.40;1.00
21928;DHT22;11128;51.096;17.190;2023-09-19T16:43:17;22.30;1.00
21928;DHT22;11128;51.096;17.190;2023-09-19T16:48:18;22.20;1.00
21928;DHT22;11128;51.096;17.190;2023-09-19T16:53:20;22.00;1.00
21928;DHT22;11128;51.096;17.190;2023-09-19T16:58:22;21.90;1.00
21928;DHT22;11128;51.096;17.190;2023-09-19T17:03:23;21.80;1.00
21928;DHT22;11128;51.096;17.190;2023-09-19T17:08:29;21.70;1.00
21928;DHT22;11128;51.096;17.190;2023-09-19T17:13:30;21.60;1.00
21928;DHT22;11128;51.096;17.190;2023-09-19T17:18:32;21.30;1.00
21928;DHT22;11128;51.096;17.190;2023-09-19T17:23:33;21.20;1.00
21928;DHT22;11128;51.096;17.190;2023-09-19T17:28:36;21.10;1.00
21928;DHT22;11128;51.096;17.190;2023-09-19T17:33:38;21.00;1.00
21928;DHT22;11128;51.096;17.190;2023-09-19T17:38:44;21.00;1.00
21928;DHT22;11128;51.096;17.190;2023-09-19T17:43:46;20.80;1.00
21928;DHT22;11128;51.096;17.190;2023-09-19T17:48:49;20.60;1.00
21928;DHT22;11128;51.096;17.190;2023-09-19T17:53:53;20.50;6.70
21928;DHT22;11128;51.096;17.190;2023-09-19T17:58:55;20.40;20.40
21928;DHT22;11128;51.096;17.190;2023-09-19T18:03:57;20.30;25.60
21928;DHT22;11128;51.096;17.190;2023-09-19T18:09:02;20.20;25.70
21928;DHT22;11128;51.096;17.190;2023-09-19T18:14:09;20.10;43.90
21928;DHT22;11128;51.096;17.190;2023-09-19T18:19:12;19.90;49.00
21928;DHT22;11128;51.096;17.190;2023-09-19T18:24:13;19.90;54.40
21928;DHT22;11128;51.096;17.190;2023-09-19T18:29:15;19.70;90.60
21928;DHT22;11128;51.096;17.190;2023-09-19T18:34:16;19.70;96.20
21928;DHT22;11128;51.096;17.190;2023-09-19T18:39:18;19.60;99.90
21928;DHT22;11128;51.096;17.190;2023-09-19T18:44:21;19.60;99.90
21928;DHT22;11128;51.096;17.190;2023-09-19T18:49:23;19.60;99.90
21928;DHT22;11128;51.096;17.190;2023-09-19T18:54:24;19.50;99.90
21928;DHT22;11128;51.096;17.190;2023-09-19T18:59:26;19.40;99.90
21928;DHT22;11128;51.096;17.190;2023-09-19T19:04:28;19.30;99.90
21928;DHT22;11128;51.096;17.190;2023-09-19T19:09:29;19.10;99.90
21928;DHT22;11128;51.096;17.190;2023-09-19T19:14:33;19.00;99.90
21928;DHT22;11128;51.096;17.190;2023-09-19T19:19:35;18.80;99.90
21928;DHT22;11128;51.096;17.190;2023-09-19T19:24:37;18.70;99.90
21928;DHT22;11128;51.096;17.190;2023-09-19T19:29:38;18.70;99.90
21928;DHT22;11128;51.096;17.190;2023-09-19T19:34:40;18.50;99.90
21928;DHT22;11128;51.096;17.190;2023-09-19T19:39:42;18.40;99.90
21928;DHT22;11128;51.096;17.190;2023-09-19T19:44:44;18.20;99.90
21928;DHT22;11128;51.096;17.190;2023-09-19T19:49:46;18.10;99.90
21928;DHT22;11128;51.096;17.190;2023-09-19T19:54:49;18.10;99.90
21928;DHT22;11128;51.096;17.190;2023-09-19T19:59:50;18.00;99.90
21928;DHT22;11128;51.096;17.190;2023-09-19T20:04:55;18.00;99.90
21928;DHT22;11128;51.096;17.190;2023-09-19T20:09:57;17.80;99.90
21928;DHT22;11128;51.096;17.190;2023-09-19T20:14:58;17.70;99.90
21928;DHT22;11128;51.096;17.190;2023-09-19T20:20:00;17.40;99.90
21928;DHT22;11128;51.096;17.190;2023-09-19T20:25:02;17.40;99.90
21928;DHT22;11128;51.096;17.190;2023-09-19T20:30:08;17.30;99.90
21928;DHT22;11128;51.096;17.190;2023-09-19T20:35:11;17.40;99.90
21928;DHT22;11128;51.096;17.190;2023-09-19T20:40:15;17.30;99.90
21928;DHT22;11128;51.096;17.190;2023-09-19T20:45:21;17.20;99.90
21928;DHT22;11128;51.096;17.190;2023-09-19T20:50:23;17.30;99.90
21928;DHT22;11128;51.096;17.190;2023-09-19T20:55:25;17.10;99.90
21928;DHT22;11128;51.096;17.190;2023-09-19T21:00:26;17.00;99.90
21928;DHT22;11128;51.096;17.190;2023-09-19T21:05:28;16.90;99.90
21928;DHT22;11128;51.096;17.190;2023-09-19T21:10:30;16.90;99.90
21928;DHT22;11128;51.096;17.190;2023-09-19T21:15:40;16.70;99.90
21928;DHT22;11128;51.096;17.190;2023-09-19T21:20:42;16.60;99.90
21928;DHT22;11128;51.096;17.190;2023-09-19T21:25:53;16.60;99.90
21928;DHT22;11128;51.096;17.190;2023-09-19T21:30:59;16.50;99.90
21928;DHT22;11128;51.096;17.190;2023-09-19T21:41:09;16.30;99.90
21928;DHT22;11128;51.096;17.190;2023-09-19T21:46:12;16.30;99.90
21928;DHT22;11128;51.096;17.190;2023-09-19T21:51:15;16.40;99.90
21928;DHT22;11128;51.096;17.190;2023-09-19T21:56:16;16.20;99.90
21928;DHT22;11128;51.096;17.190;2023-09-19T22:01:19;16.10;99.90
21928;DHT22;11128;51.096;17.190;2023-09-19T22:11:30;15.80;99.90
21928;DHT22;11128;51.096;17.190;2023-09-19T22:16:32;15.90;99.90
21928;DHT22;11128;51.096;17.190;2023-09-19T22:26:44;15.70;99.90
21928;DHT22;11128;51.096;17.190;2023-09-19T22:31:47;15.60;99.90
21928;DHT22;11128;51.096;17.190;2023-09-19T22:36:48;15.50;99.90
21928;DHT22;11128;51.096;17.190;2023-09-19T22:41:55;15.30;99.90
21928;DHT22;11128;51.096;17.190;2023-09-19T22:47:00;15.20;99.90
21928;DHT22;11128;51.096;17.190;2023-09-19T22:52:03;15.20;99.90
21928;DHT22;11128;51.096;17.190;2023-09-19T23:07:18;15.00;99.90
21928;DHT22;11128;51.096;17.190;2023-09-19T23:17:28;14.90;99.90
21928;DHT22;11128;51.096;17.190;2023-09-19T23:22:29;14.80;99.90
21928;DHT22;11128;51.096;17.190;2023-09-19T23:32:38;14.70;99.90
21928;DHT22;11128;51.096;17.190;2023-09-19T23:42:44;14.70;99.90
21928;DHT22;11128;51.096;17.190;2023-09-19T23:47:46;14.60;99.90
21928;DHT22;11128;51.096;17.190;2023-09-19T23:52:49;14.60;99.90
21928;DHT22;11128;51.096;17.190;2023-09-19T23:57:51;14.70;99.90
